createdAt,value
2023-03-26T00:02:24.628Z,97335.16
2023-03-26T00:05:38.681Z,97352.81
2023-03-26T00:08:50.267Z,97311.03
2023-03-26T00:12:01.219Z,97317.31
2023-03-26T00:15:26.337Z,97374.72
2023-03-26T00:18:54.239Z,97380.81
2023-03-26T00:22:01.085Z,97359.84
2023-03-26T00:25:20.482Z,97332.69
2023-03-26T00:32:22.633Z,97346.53
2023-03-26T00:35:32.358Z,97363.00
2023-03-26T00:38:39.588Z,97337.72
2023-03-26T00:41:46.542Z,97344.41
2023-03-26T00:44:55.272Z,97339.38
2023-03-26T00:48:02.831Z,97316.59
2023-03-26T00:51:15.886Z,97325.69
2023-03-26T00:54:24.089Z,97338.50
2023-03-26T00:57:36.917Z,97340.47
2023-03-26T01:00:51.643Z,97299.72
2023-03-26T01:04:31.452Z,97289.19
2023-03-26T01:07:43.234Z,97297.97
2023-03-26T01:11:15.249Z,97326.81
2023-03-26T01:18:26.590Z,97275.59
2023-03-26T06:25:00.996Z,97278.41
2023-03-26T06:29:06.218Z,97282.31
2023-03-26T06:37:27.073Z,97295.97
2023-03-26T06:40:39.917Z,97284.19
2023-03-26T06:44:05.949Z,97298.41
2023-03-26T06:47:15.764Z,97312.53
2023-03-26T06:50:39.963Z,97309.06
2023-03-26T06:53:55.755Z,97310.84
2023-03-26T06:57:22.716Z,97315.88
2023-03-26T07:00:48.152Z,97317.63
2023-03-26T07:04:20.185Z,97307.31
2023-03-26T07:07:47.482Z,97306.16
2023-03-26T07:11:16.879Z,97308.97
2023-03-26T07:14:57.886Z,97316.19
2023-03-26T07:18:27.398Z,97305.72
2023-03-26T07:21:36.018Z,97307.16
2023-03-26T07:24:49.352Z,97309.78
2023-03-26T07:28:32.982Z,97295.03
2023-03-26T07:31:57.888Z,97313.88
2023-03-26T07:35:16.963Z,97309.56
2023-03-26T07:39:14.077Z,97306.44
2023-03-26T07:43:09.403Z,97319.88
2023-03-26T07:46:49.071Z,97334.09
2023-03-26T07:50:20.129Z,97325.38
2023-03-26T07:53:47.491Z,97312.31
2023-03-26T07:57:30.283Z,97309.16
2023-03-26T08:01:10.349Z,97310.75
2023-03-26T08:05:04.478Z,97312.78
2023-03-26T08:08:48.252Z,97309.91
2023-03-26T08:12:42.467Z,97320.97
2023-03-26T08:16:05.849Z,97315.84
2023-03-26T08:20:06.092Z,97313.13
2023-03-26T08:23:27.924Z,97296.75
2023-03-26T08:26:55.468Z,97308.94
2023-03-26T08:30:14.984Z,97299.13
2023-03-26T08:33:30.117Z,97287.47
2023-03-26T08:36:38.802Z,97297.25
2023-03-26T08:39:46.258Z,97298.03
2023-03-26T08:43:39.036Z,97287.63
2023-03-26T08:47:41.740Z,97297.09
2023-03-26T08:51:40.628Z,97280.44
2023-03-26T08:55:35.489Z,97276.13
2023-03-26T08:59:40.748Z,97261.34
2023-03-26T09:03:38.197Z,97263.06
2023-03-26T09:07:28.455Z,97276.19
2023-03-26T09:11:25.048Z,97268.22
2023-03-26T09:15:27.406Z,97273.19
2023-03-26T09:19:09.166Z,97269.13
2023-03-26T09:23:14.973Z,97261.91
2023-03-26T09:26:50.555Z,97269.50
2023-03-26T09:30:45.072Z,97262.88
2023-03-26T09:34:05.338Z,97261.72
2023-03-26T09:37:56.805Z,97253.28
2023-03-26T09:41:18.576Z,97257.50
2023-03-26T09:45:15.368Z,97259.34
2023-03-26T09:49:01.061Z,97260.59
2023-03-26T09:52:28.864Z,97262.25
2023-03-26T09:56:00.220Z,97271.06
2023-03-26T09:59:38.050Z,97279.44
2023-03-26T10:03:25.704Z,97268.13
2023-03-26T10:06:56.012Z,97269.34
2023-03-26T10:10:15.846Z,97251.75
2023-03-26T10:13:41.894Z,97260.78
2023-03-26T10:17:13.716Z,97249.63
2023-03-26T10:20:47.808Z,97244.50
2023-03-26T10:24:29.580Z,97238.69
2023-03-26T10:27:50.945Z,97232.81
2023-03-26T10:31:43.320Z,97239.50
2023-03-26T10:35:13.079Z,97228.56
2023-03-26T10:38:45.271Z,97229.44
2023-03-26T10:42:10.725Z,97210.00
2023-03-26T10:45:39.901Z,97203.88
2023-03-26T10:49:25.569Z,97208.22
2023-03-26T10:52:44.840Z,97203.69
2023-03-26T10:56:07.084Z,97207.69
2023-03-26T10:59:17.846Z,97212.56
2023-03-26T11:02:33.629Z,97207.94
2023-03-26T11:05:57.658Z,97196.47
2023-03-26T11:09:28.473Z,97189.72
2023-03-26T11:12:52.079Z,97187.88
2023-03-26T11:16:09.941Z,97194.66
2023-03-26T11:19:29.535Z,97193.19
2023-03-26T11:22:56.702Z,97186.38
2023-03-26T11:26:18.553Z,97166.41
2023-03-26T11:29:52.407Z,97178.22
2023-03-26T11:33:06.617Z,97164.03
2023-03-26T11:36:20.815Z,97142.16
2023-03-26T11:39:40.798Z,97145.72
2023-03-26T11:42:48.409Z,97152.22
2023-03-26T11:45:58.294Z,97150.75
2023-03-26T11:49:13.927Z,97154.59
2023-03-26T11:52:20.890Z,97144.72
2023-03-26T11:55:29.178Z,97144.50
2023-03-26T11:58:48.526Z,97142.00
2023-03-26T12:02:02.442Z,97143.72
2023-03-26T12:05:22.948Z,97137.72
2023-03-26T12:08:37.964Z,97139.41
2023-03-26T12:11:48.493Z,97136.25
2023-03-26T12:14:55.038Z,97127.34
2023-03-26T12:18:28.063Z,97118.41
2023-03-26T12:21:46.918Z,97129.41
2023-03-26T12:25:07.931Z,97133.00
2023-03-26T12:28:23.697Z,97119.50
2023-03-26T12:31:30.634Z,97123.00
2023-03-26T12:34:42.662Z,97108.91
2023-03-26T12:37:51.968Z,97112.31
2023-03-26T12:44:42.086Z,97109.94
2023-03-26T12:44:58.747Z,97106.63
2023-03-26T12:48:13.138Z,97104.13
2023-03-26T12:51:43.473Z,97080.53
2023-03-26T12:55:12.290Z,97078.09
2023-03-26T12:58:51.653Z,97083.25
2023-03-26T13:02:22.036Z,97081.25
2023-03-26T13:05:52.134Z,97079.03
2023-03-26T13:09:44.007Z,97075.53
2023-03-26T13:13:14.002Z,97082.81
2023-03-26T13:16:38.497Z,97079.19
2023-03-26T13:20:12.632Z,97065.72
2023-03-26T13:23:36.445Z,97069.16
2023-03-26T13:27:07.857Z,97061.78
2023-03-26T13:30:32.475Z,97033.31
2023-03-26T13:33:52.587Z,97038.66
2023-03-26T13:37:16.378Z,97040.94
2023-03-26T13:40:39.610Z,97042.41
2023-03-26T13:44:11.496Z,97034.13
2023-03-26T13:47:34.021Z,97038.34
2023-03-26T13:50:51.267Z,97030.94
2023-03-26T13:54:14.450Z,97032.03
2023-03-26T13:57:32.230Z,97036.88
2023-03-26T14:01:04.184Z,97043.97
2023-03-26T14:04:32.707Z,97028.34
2023-03-26T14:07:56.275Z,97038.78
2023-03-26T14:11:19.134Z,97030.88
2023-03-26T14:14:41.711Z,97035.22
2023-03-26T14:18:01.584Z,97019.25
2023-03-26T14:21:42.418Z,97021.69
2023-03-26T14:25:14.589Z,97007.41
2023-03-26T14:28:59.852Z,97004.41
2023-03-26T14:32:30.933Z,97009.44
2023-03-26T14:35:57.541Z,97008.72
2023-03-26T14:39:43.266Z,97005.94
2023-03-26T14:43:08.215Z,97012.13
2023-03-26T14:46:44.006Z,97008.69
2023-03-26T14:50:38.830Z,97013.13
2023-03-26T14:53:55.404Z,97001.56
2023-03-26T14:57:40.197Z,97003.84
2023-03-26T15:01:26.305Z,96988.47
2023-03-26T15:05:14.180Z,96983.66
2023-03-26T15:09:04.502Z,96987.31
2023-03-26T15:12:41.503Z,96988.03
2023-03-26T15:16:34.390Z,96987.69
2023-03-26T15:20:48.120Z,96986.19
2023-03-26T15:25:02.102Z,96976.19
2023-03-26T15:28:55.520Z,96972.72
2023-03-26T15:32:59.156Z,96981.19
2023-03-26T15:36:56.635Z,96973.19
2023-03-26T15:40:49.321Z,96965.16
2023-03-26T15:44:31.692Z,96967.31
2023-03-26T15:48:01.311Z,96971.53
2023-03-26T15:51:46.406Z,96969.06
2023-03-26T15:55:07.360Z,96958.94
2023-03-26T15:58:28.137Z,96964.03
2023-03-26T16:02:02.880Z,96952.78
2023-03-26T16:05:48.058Z,96953.25
2023-03-26T16:09:17.343Z,96971.88
2023-03-26T16:12:41.743Z,96949.81
2023-03-26T16:15:58.305Z,96950.41
2023-03-26T16:19:41.496Z,96950.78
2023-03-26T16:23:03.864Z,96947.66
2023-03-26T16:26:26.230Z,96953.88
2023-03-26T16:29:34.466Z,96947.09
2023-03-26T16:32:48.322Z,96948.34
2023-03-26T16:36:18.794Z,96939.94
2023-03-26T16:39:44.553Z,96942.53
2023-03-26T16:42:58.029Z,96934.78
2023-03-26T16:46:26.676Z,96946.59
2023-03-26T16:50:08.431Z,96947.47
2023-03-26T16:53:41.803Z,96955.69
2023-03-26T16:57:08.263Z,96950.25
2023-03-26T17:00:43.282Z,96951.94
2023-03-26T17:04:02.800Z,96946.94
2023-03-26T17:07:24.676Z,96950.44
2023-03-26T17:10:43.794Z,96945.56
2023-03-26T17:14:10.579Z,96948.47
2023-03-26T17:17:48.857Z,96948.69
2023-03-26T17:21:07.479Z,96940.41
2023-03-26T17:24:30.838Z,96945.97
2023-03-26T17:28:32.526Z,96941.63
2023-03-26T17:31:48.461Z,96943.78
2023-03-26T17:35:07.147Z,96960.69
2023-03-26T17:39:00.594Z,96958.09
2023-03-26T17:42:29.296Z,96944.00
2023-03-26T17:45:41.108Z,96948.66
2023-03-26T17:49:04.610Z,96953.91
2023-03-26T17:52:26.977Z,96951.88
2023-03-26T17:55:42.304Z,96955.19
2023-03-26T17:58:54.971Z,96953.41
2023-03-26T18:02:07.666Z,96952.81
2023-03-26T18:05:21.774Z,96943.28
2023-03-26T18:08:52.295Z,96944.03
2023-03-26T18:12:50.656Z,96943.16
2023-03-26T18:16:19.201Z,96944.34
2023-03-26T18:19:26.794Z,96952.22
2023-03-26T18:22:37.825Z,96953.88
2023-03-26T18:25:44.274Z,96951.25
2023-03-26T18:28:57.168Z,96956.50
2023-03-26T18:32:07.619Z,96958.63
2023-03-26T18:58:30.683Z,96968.38
2023-03-26T19:01:41.135Z,96963.50
2023-03-26T19:04:50.371Z,96966.94
2023-03-26T19:07:59.864Z,96959.63
2023-03-26T19:11:06.480Z,96954.78
2023-03-26T19:14:26.344Z,96963.25
2023-03-26T19:17:41.634Z,96953.75
2023-03-26T19:20:52.618Z,96952.16
2023-03-26T19:24:00.003Z,96950.56
2023-03-26T19:27:08.090Z,96947.09
2023-03-26T19:30:34.128Z,96947.91
2023-03-26T19:33:46.324Z,96943.69
2023-03-26T19:36:58.485Z,96940.06
2023-03-26T19:40:16.762Z,96943.09
2023-03-26T19:43:23.297Z,96938.03
2023-03-26T19:46:53.015Z,96935.59
2023-03-26T19:50:25.037Z,96929.94
2023-03-26T19:53:40.780Z,96930.75
2023-03-26T19:56:46.819Z,96931.75
2023-03-26T19:59:55.677Z,96922.44
2023-03-26T20:03:04.365Z,96919.41
2023-03-26T20:06:15.305Z,96916.34
2023-03-26T20:09:21.605Z,96912.88
2023-03-26T20:12:28.304Z,96904.56
2023-03-26T20:15:39.534Z,96900.13
2023-03-26T20:18:50.935Z,96906.78
2023-03-26T20:21:57.080Z,96896.03
2023-03-26T20:25:03.920Z,96887.13
2023-03-26T20:28:10.303Z,96893.44
2023-03-26T20:31:22.638Z,96884.38
2023-03-26T20:34:32.309Z,96874.91
2023-03-26T20:37:39.382Z,96874.50
2023-03-26T20:40:46.429Z,96869.66
2023-03-26T20:43:54.004Z,96858.69
2023-03-26T20:46:59.967Z,96859.28
2023-03-26T20:50:16.367Z,96858.09
2023-03-26T20:53:23.964Z,96857.94
2023-03-26T20:56:31.328Z,96843.03
2023-03-26T20:59:40.728Z,96822.47
2023-03-26T21:02:49.432Z,96829.06
2023-03-26T21:06:05.111Z,96823.09
2023-03-26T21:09:18.269Z,96822.66
2023-03-26T21:12:45.264Z,96827.75
2023-03-26T21:15:54.084Z,96822.09
2023-03-26T21:19:05.542Z,96819.53
2023-03-26T21:22:33.824Z,96820.56
2023-03-26T21:25:53.140Z,96822.41
2023-03-26T21:29:04.104Z,96830.53
2023-03-26T21:32:17.047Z,96822.06
2023-03-26T21:35:28.830Z,96830.53
2023-03-26T21:38:39.933Z,96824.09
2023-03-26T21:42:04.797Z,96836.19
2023-03-26T21:45:15.521Z,96818.59
2023-03-26T21:48:23.793Z,96823.47
2023-03-26T21:51:30.966Z,96816.19
2023-03-26T21:54:43.345Z,96805.22
2023-03-26T21:58:30.662Z,96811.47
2023-03-26T22:01:53.955Z,96807.59
2023-03-26T22:05:11.157Z,96802.94
2023-03-26T22:08:31.656Z,96801.72
2023-03-26T22:11:41.811Z,96805.69
2023-03-26T22:14:48.542Z,96808.53
2023-03-26T22:17:56.541Z,96812.56
2023-03-26T22:21:04.853Z,96814.38
2023-03-26T22:24:11.206Z,96804.25
2023-03-26T22:27:20.809Z,96805.63
2023-03-26T22:30:27.452Z,96807.59
2023-03-26T22:33:35.960Z,96810.81
2023-03-26T22:36:42.019Z,96800.16
2023-03-26T22:39:48.791Z,96799.28
2023-03-26T22:42:57.486Z,96797.25
2023-03-26T22:46:04.258Z,96791.56
2023-03-26T22:49:10.499Z,96790.94
2023-03-26T22:52:17.411Z,96779.38
2023-03-26T22:55:28.864Z,96771.88
2023-03-26T22:58:39.468Z,96770.03
2023-03-26T23:01:45.850Z,96750.25
2023-03-26T23:04:52.916Z,96757.94
2023-03-26T23:07:58.897Z,96758.84
2023-03-26T23:11:06.332Z,96769.22
2023-03-26T23:14:14.963Z,96762.22
2023-03-26T23:17:22.667Z,96754.97
2023-03-26T23:20:30.303Z,96752.81
2023-03-26T23:23:39.178Z,96754.69
2023-03-26T23:26:50.573Z,96745.41
2023-03-26T23:30:04.653Z,96740.31
2023-03-26T23:33:11.388Z,96740.72
2023-03-26T23:36:23.915Z,96727.34
2023-03-26T23:39:31.443Z,96725.75
2023-03-26T23:42:38.229Z,96736.66
2023-03-26T23:45:48.211Z,96733.69
2023-03-26T23:49:00.202Z,96734.50
2023-03-26T23:52:07.233Z,96734.50
2023-03-26T23:55:14.217Z,96737.50
2023-03-26T23:58:21.795Z,96741.06
